createdAt,value
2023-05-09T06:36:57.456Z,49.71
2023-05-09T06:42:03.854Z,50.17
2023-05-09T06:47:10.517Z,50.11
2023-05-09T06:52:16.005Z,50.03
2023-05-09T06:57:19.695Z,50.12
2023-05-09T07:02:23.223Z,50.64
2023-05-09T07:07:30.613Z,50.36
2023-05-09T07:12:34.299Z,52.53
2023-05-09T07:17:37.761Z,51.55
2023-05-09T07:22:42.590Z,51.90
2023-05-09T07:27:46.574Z,52.14
2023-05-09T07:32:50.391Z,50.77
2023-05-09T07:37:55.316Z,50.32
2023-05-09T07:42:58.800Z,51.02
2023-05-09T07:48:02.320Z,51.17
2023-05-09T07:53:10.833Z,51.94
2023-05-09T07:58:14.690Z,51.39
2023-05-09T08:03:19.613Z,52.46
2023-05-09T08:08:25.374Z,52.83
2023-05-09T08:13:29.654Z,52.32
2023-05-09T08:18:33.960Z,53.43
2023-05-09T08:23:40.621Z,52.88
2023-05-09T08:28:44.747Z,54.42
2023-05-09T08:33:48.356Z,53.67
2023-05-09T08:38:53.249Z,53.85
2023-05-09T08:43:57.110Z,52.81
2023-05-09T08:49:01.845Z,54.61
2023-05-09T08:54:21.415Z,53.75
2023-05-09T08:59:27.209Z,54.26
2023-05-09T09:04:30.958Z,54.12
2023-05-09T09:09:36.917Z,53.27
2023-05-09T09:14:42.885Z,55.46
2023-05-09T09:19:50.562Z,60.14
2023-05-09T09:24:55.873Z,58.49
2023-05-09T09:30:07.547Z,55.17
2023-05-09T09:35:39.530Z,56.03
2023-05-09T09:40:53.928Z,52.88
2023-05-09T09:45:58.206Z,52.81
2023-05-09T09:51:05.150Z,52.75
2023-05-09T09:56:11.339Z,52.15
2023-05-09T10:01:16.446Z,53.93
2023-05-09T10:06:20.296Z,51.71
2023-05-09T10:11:25.223Z,52.22
2023-05-09T10:16:40.173Z,51.50
2023-05-09T10:21:54.340Z,49.02
2023-05-09T10:27:05.875Z,47.36
2023-05-09T10:32:13.796Z,48.32
2023-05-09T10:37:18.198Z,47.64
2023-05-09T10:42:25.545Z,48.86
2023-05-09T10:47:30.643Z,49.11
2023-05-09T10:52:34.603Z,47.41
2023-05-09T10:57:40.423Z,47.58
2023-05-09T11:02:43.979Z,46.89
2023-05-09T11:07:47.923Z,47.68
2023-05-09T11:12:57.925Z,47.98
2023-05-09T11:18:08.836Z,48.34
2023-05-09T11:23:12.613Z,49.46
2023-05-09T11:28:29.486Z,46.81
2023-05-09T11:33:37.005Z,47.84
2023-05-09T11:38:42.692Z,48.08
2023-05-09T11:43:47.685Z,48.49
2023-05-09T11:48:51.354Z,47.23
2023-05-09T11:53:55.051Z,48.23
2023-05-09T11:58:59.916Z,45.65
2023-05-09T12:04:04.264Z,48.06
2023-05-09T12:09:10.438Z,46.78
2023-05-09T12:14:27.156Z,46.96
2023-05-09T12:19:30.684Z,47.24
2023-05-09T12:24:36.344Z,47.60
2023-05-09T12:29:46.239Z,47.81
2023-05-09T12:34:50.315Z,47.33
2023-05-09T12:40:05.078Z,46.33
2023-05-09T12:45:12.915Z,47.70
2023-05-09T12:50:16.755Z,45.98
2023-05-09T12:55:21.165Z,45.65
2023-05-09T13:00:27.624Z,45.47
2023-05-09T13:05:35.377Z,43.97
2023-05-09T13:10:40.150Z,46.65
2023-05-09T13:15:49.309Z,45.89
2023-05-09T13:20:56.093Z,45.22
2023-05-09T13:26:00.142Z,46.10
2023-05-09T13:31:05.288Z,45.46
2023-05-09T13:36:12.085Z,45.52
2023-05-09T13:41:20.462Z,47.43
2023-05-09T13:46:25.980Z,44.92
2023-05-09T13:51:29.954Z,45.82
2023-05-09T13:56:33.420Z,47.05
2023-05-09T14:01:38.414Z,44.80
2023-05-09T14:06:47.916Z,45.45
2023-05-09T14:11:53.178Z,45.50
2023-05-09T14:16:59.095Z,45.85
2023-05-09T14:22:05.161Z,45.64
2023-05-09T14:27:11.160Z,44.73
2023-05-09T14:32:19.296Z,45.88
2023-05-09T14:37:48.248Z,46.74
2023-05-09T14:43:15.221Z,46.22
2023-05-09T14:48:20.152Z,45.62
2023-05-09T14:54:13.153Z,44.48
2023-05-09T14:59:00.603Z,45.27
2023-05-09T15:10:42.430Z,45.78
2023-05-09T15:16:03.170Z,46.11
2023-05-09T15:21:09.523Z,46.71
2023-05-09T15:26:44.600Z,46.23
2023-05-09T15:32:52.823Z,46.98
2023-05-09T15:38:01.466Z,47.58
2023-05-09T15:43:09.904Z,46.67
2023-05-09T15:48:16.767Z,47.64
2023-05-09T15:53:23.220Z,49.39
2023-05-09T15:58:27.481Z,49.08
2023-05-09T16:03:30.989Z,47.84
2023-05-09T16:08:35.931Z,46.06
2023-05-09T16:13:39.761Z,46.51
2023-05-09T16:18:43.533Z,47.72
2023-05-09T16:23:50.463Z,47.84
2023-05-09T16:28:54.148Z,49.30
2023-05-09T16:33:58.141Z,49.12
2023-05-09T16:39:03.209Z,49.74
2023-05-09T16:44:06.696Z,47.96
2023-05-09T16:49:10.420Z,48.50
2023-05-09T16:54:16.002Z,50.09
2023-05-09T16:59:20.106Z,50.49
2023-05-09T17:04:25.673Z,50.17
2023-05-09T17:09:33.706Z,51.23
2023-05-09T17:14:37.099Z,50.69
2023-05-09T17:19:40.735Z,50.95
2023-05-09T17:24:45.772Z,51.00
2023-05-09T17:29:50.112Z,51.38
2023-05-09T17:34:54.399Z,51.99
2023-05-09T17:40:06.091Z,52.11
2023-05-09T17:45:14.319Z,52.04
2023-05-09T17:50:22.976Z,52.28
2023-05-09T17:55:28.294Z,52.81
2023-05-09T18:00:46.563Z,53.27
2023-05-09T18:05:56.217Z,53.30
2023-05-09T18:11:11.840Z,53.98
2023-05-09T18:16:25.453Z,54.67
2023-05-09T18:21:30.615Z,55.09
2023-05-09T18:26:35.944Z,55.63
2023-05-09T18:31:41.498Z,56.31
2023-05-09T18:43:16.581Z,57.55
2023-05-09T18:48:20.626Z,57.32
2023-05-09T18:59:17.682Z,59.16
2023-05-09T19:04:58.898Z,59.28
2023-05-09T19:10:25.781Z,60.59
2023-05-09T19:21:05.969Z,61.08
2023-05-09T19:26:11.251Z,61.48
2023-05-09T19:31:31.467Z,62.17
2023-05-09T19:36:36.877Z,62.76
2023-05-09T19:42:04.621Z,63.54
2023-05-09T19:47:18.558Z,63.50
2023-05-09T19:52:32.417Z,63.05
2023-05-09T19:57:40.255Z,62.92
2023-05-09T20:02:44.567Z,63.41
2023-05-09T20:07:58.323Z,63.86
2023-05-09T20:13:04.069Z,64.69
2023-05-09T20:18:09.783Z,64.74
2023-05-09T20:23:17.247Z,65.08
2023-05-09T20:28:24.201Z,65.05
2023-05-09T20:33:27.986Z,65.21
2023-05-09T20:38:39.008Z,65.93
2023-05-09T20:43:44.088Z,66.56
2023-05-09T20:48:48.567Z,66.50
2023-05-09T20:53:53.554Z,66.89
2023-05-09T20:58:59.985Z,67.26
2023-05-09T21:04:03.982Z,67.56
2023-05-09T21:09:10.114Z,68.11
2023-05-09T21:14:13.651Z,67.96
2023-05-09T21:19:17.287Z,68.00
2023-05-09T21:24:22.305Z,68.65
2023-05-09T21:29:25.712Z,68.39
2023-05-09T21:34:29.639Z,69.14
